createdAt,value
2023-04-08T00:01:00.758Z,19.48
2023-04-08T00:03:27.630Z,19.77
2023-04-08T00:05:54.450Z,19.85
2023-04-08T00:08:21.920Z,19.83
2023-04-08T00:10:48.731Z,20.02
2023-04-08T00:13:16.485Z,19.73
2023-04-08T00:15:43.544Z,19.75
2023-04-08T00:18:10.425Z,20.38
2023-04-08T00:20:37.253Z,21.23
2023-04-08T00:23:04.312Z,19.88
2023-04-08T00:25:31.608Z,19.95
2023-04-08T00:27:58.414Z,19.08
2023-04-08T00:30:25.620Z,19.40
2023-04-08T00:32:52.459Z,19.60
2023-04-08T00:35:19.253Z,18.92
2023-04-08T00:37:46.218Z,20.48
2023-04-08T00:40:13.037Z,21.90
2023-04-08T00:42:39.966Z,19.83
2023-04-08T00:45:07.339Z,18.50
2023-04-08T00:47:36.279Z,20.10
2023-04-08T00:50:04.449Z,20.83
2023-04-08T00:52:31.230Z,20.35
2023-04-08T00:54:57.959Z,20.38
2023-04-08T00:57:24.816Z,20.30
2023-04-08T00:59:51.676Z,20.58
2023-04-08T01:02:33.211Z,20.33
2023-04-08T01:05:10.145Z,18.95
2023-04-08T01:07:49.759Z,19.92
2023-04-08T01:10:21.444Z,20.95
2023-04-08T01:12:55.435Z,20.65
2023-04-08T01:15:22.765Z,19.48
2023-04-08T01:17:54.686Z,19.88
2023-04-08T01:20:23.887Z,19.85
2023-04-08T01:23:03.938Z,20.85
2023-04-08T01:25:32.563Z,18.90
2023-04-08T01:28:09.177Z,20.67
2023-04-08T01:30:38.215Z,19.65
2023-04-08T01:33:09.876Z,20.80
2023-04-08T01:35:37.190Z,18.05
2023-04-08T01:38:07.284Z,20.23
2023-04-08T01:40:38.214Z,21.05
2023-04-08T01:43:08.354Z,22.13
2023-04-08T01:45:35.111Z,19.55
2023-04-08T01:48:02.589Z,19.73
2023-04-08T01:50:31.813Z,20.48
2023-04-08T01:53:00.721Z,20.30
2023-04-08T01:55:28.986Z,19.50
2023-04-08T01:58:00.049Z,20.00
2023-04-08T02:00:31.163Z,20.00
2023-04-08T02:03:00.663Z,20.17
2023-04-08T02:05:27.793Z,20.10
2023-04-08T02:07:54.648Z,21.63
2023-04-08T02:10:21.617Z,20.27
2023-04-08T02:12:48.532Z,20.23
2023-04-08T02:15:16.018Z,20.50
2023-04-08T02:17:56.255Z,20.40
2023-04-08T02:20:38.943Z,21.60
2023-04-08T02:23:16.709Z,22.30
2023-04-08T02:25:46.242Z,21.08
2023-04-08T02:28:15.985Z,21.63
2023-04-08T02:30:44.512Z,22.08
2023-04-08T02:33:13.248Z,20.85
2023-04-08T02:35:41.778Z,19.83
2023-04-08T02:38:11.104Z,19.92
2023-04-08T02:40:38.316Z,19.95
2023-04-08T02:43:05.175Z,20.08
2023-04-08T02:45:35.939Z,21.35
2023-04-08T02:48:02.803Z,20.25
2023-04-08T02:50:29.742Z,19.20
2023-04-08T02:52:56.574Z,20.83
2023-04-08T02:55:23.352Z,20.77
2023-04-08T02:57:50.788Z,20.48
2023-04-08T03:00:20.565Z,21.63
2023-04-08T03:02:47.484Z,20.10
2023-04-08T03:05:16.489Z,20.40
2023-04-08T03:07:43.391Z,20.92
2023-04-08T03:10:10.446Z,20.00
2023-04-08T03:12:37.310Z,20.35
2023-04-08T03:15:04.729Z,19.08
2023-04-08T03:17:34.132Z,21.38
2023-04-08T03:20:02.547Z,19.70
2023-04-08T03:22:29.366Z,19.92
2023-04-08T03:24:56.160Z,19.40
2023-04-08T03:27:23.140Z,20.25
2023-04-08T03:29:50.016Z,18.27
2023-04-08T03:32:17.140Z,18.80
2023-04-08T03:34:43.938Z,18.75
2023-04-08T03:37:10.780Z,18.77
2023-04-08T03:39:38.896Z,18.50
2023-04-08T03:42:05.713Z,19.10
2023-04-08T03:44:32.646Z,18.88
2023-04-08T03:46:59.430Z,18.35
2023-04-08T03:49:26.288Z,18.05
2023-04-08T03:51:53.027Z,18.15
2023-04-08T03:54:19.788Z,18.55
2023-04-08T03:56:47.565Z,18.98
2023-04-08T03:59:14.371Z,20.00
2023-04-08T04:01:42.099Z,17.33
2023-04-08T04:04:09.140Z,17.23
2023-04-08T04:06:36.210Z,17.30
2023-04-08T04:09:03.041Z,17.38
2023-04-08T04:11:29.811Z,17.83
2023-04-08T04:13:56.743Z,17.42
2023-04-08T04:16:23.511Z,17.35
2023-04-08T04:18:50.976Z,17.17
2023-04-08T04:21:17.949Z,17.67
2023-04-08T04:23:44.792Z,18.20
2023-04-08T04:26:12.020Z,18.00
2023-04-08T04:28:39.223Z,18.60
2023-04-08T04:31:06.266Z,18.58
2023-04-08T04:33:33.053Z,17.67
2023-04-08T04:35:59.969Z,18.13
2023-04-08T04:38:27.296Z,17.58
2023-04-08T04:40:54.065Z,18.35
2023-04-08T04:43:20.868Z,17.85
2023-04-08T04:45:47.656Z,18.08
2023-04-08T04:48:14.644Z,16.75
2023-04-08T04:50:41.470Z,16.98
2023-04-08T04:53:08.407Z,17.70
2023-04-08T04:55:36.402Z,16.70
2023-04-08T04:58:04.624Z,15.40
2023-04-08T05:00:31.710Z,16.58
2023-04-08T05:02:58.648Z,16.23
2023-04-08T05:05:25.631Z,16.95
2023-04-08T05:07:52.502Z,14.85
2023-04-08T05:10:19.320Z,15.32
2023-04-08T05:12:46.178Z,15.30
2023-04-08T05:15:12.954Z,15.00
2023-04-08T05:17:40.016Z,16.70
2023-04-08T05:20:07.524Z,14.88
2023-04-08T05:22:34.780Z,14.07
2023-04-08T05:25:01.623Z,13.75
2023-04-08T05:27:29.058Z,14.55
2023-04-08T05:29:55.820Z,15.18
2023-04-08T05:32:22.711Z,14.77
2023-04-08T05:34:49.547Z,14.60
2023-04-08T05:37:16.508Z,14.13
2023-04-08T05:39:43.287Z,14.57
2023-04-08T05:42:11.295Z,14.38
2023-04-08T05:44:39.339Z,14.05
2023-04-08T05:47:08.990Z,12.75
2023-04-08T05:49:36.117Z,12.82
2023-04-08T05:52:04.089Z,12.20
2023-04-08T05:54:31.019Z,12.95
2023-04-08T05:56:57.874Z,12.48
2023-04-08T05:59:24.975Z,12.50
2023-04-08T06:01:51.973Z,12.70
2023-04-08T06:04:19.852Z,12.50
2023-04-08T06:06:47.018Z,12.50
2023-04-08T06:09:13.780Z,11.48
2023-04-08T06:11:41.628Z,11.65
2023-04-08T06:14:08.817Z,11.75
2023-04-08T06:16:35.722Z,10.73
2023-04-08T06:19:02.737Z,11.40
2023-04-08T06:21:29.498Z,11.05
2023-04-08T06:23:57.140Z,11.35
2023-04-08T06:26:23.957Z,10.25
2023-04-08T06:28:52.423Z,10.70
2023-04-08T06:31:19.486Z,10.82
2023-04-08T06:33:46.260Z,10.82
2023-04-08T06:36:13.639Z,10.43
2023-04-08T06:38:40.450Z,10.85
2023-04-08T06:41:08.129Z,10.20
2023-04-08T06:43:38.046Z,11.43
2023-04-08T06:46:05.140Z,10.13
2023-04-08T06:48:31.933Z,10.60
2023-04-08T06:51:00.700Z,11.05
2023-04-08T06:53:33.054Z,10.20
2023-04-08T06:56:00.554Z,10.27
2023-04-08T06:58:27.641Z,10.13
2023-04-08T07:00:56.515Z,10.27
2023-04-08T07:03:24.069Z,10.52
2023-04-08T07:05:51.248Z,10.63
2023-04-08T07:08:17.934Z,10.07
2023-04-08T07:10:45.142Z,10.27
2023-04-08T07:13:12.428Z,10.32
2023-04-08T07:15:39.202Z,10.05
2023-04-08T07:18:06.370Z,10.35
2023-04-08T07:20:38.654Z,10.13
2023-04-08T07:23:05.821Z,10.45
2023-04-08T07:25:34.679Z,10.23
2023-04-08T07:28:01.783Z,9.32
2023-04-08T07:30:28.641Z,9.65
2023-04-08T07:32:57.592Z,10.43
2023-04-08T07:35:26.294Z,9.75
2023-04-08T07:37:53.340Z,9.82
2023-04-08T07:40:20.193Z,9.85
2023-04-08T07:42:47.583Z,9.52
2023-04-08T07:45:14.731Z,9.93
2023-04-08T07:47:41.617Z,9.35
2023-04-08T07:50:08.681Z,8.68
2023-04-08T07:52:35.766Z,9.45
2023-04-08T07:55:02.586Z,9.27
2023-04-08T07:57:29.416Z,10.05
2023-04-08T07:59:56.610Z,8.95
2023-04-08T08:02:23.859Z,9.00
2023-04-08T08:04:50.906Z,9.25
2023-04-08T08:07:17.843Z,9.80
2023-04-08T08:09:45.129Z,9.23
2023-04-08T08:12:11.999Z,9.95
2023-04-08T08:15:34.392Z,10.10
2023-04-08T08:18:01.423Z,9.18
2023-04-08T08:20:28.345Z,9.23
2023-04-08T08:22:57.871Z,8.18
2023-04-08T08:25:26.160Z,8.30
2023-04-08T08:27:53.205Z,8.82
2023-04-08T08:30:22.214Z,8.27
2023-04-08T08:32:50.018Z,8.18
2023-04-08T08:35:16.854Z,7.32
2023-04-08T08:37:46.754Z,8.07
2023-04-08T08:40:15.121Z,7.85
2023-04-08T08:42:42.370Z,7.85
2023-04-08T08:45:09.653Z,7.32
2023-04-08T08:47:36.590Z,6.88
2023-04-08T08:50:03.411Z,6.97
2023-04-08T08:52:30.172Z,6.90
2023-04-08T08:54:59.868Z,6.88
2023-04-08T08:57:27.413Z,6.45
2023-04-08T08:59:54.667Z,6.47
2023-04-08T09:02:29.266Z,6.50
2023-04-08T09:04:58.845Z,6.85
2023-04-08T09:07:27.122Z,6.28
2023-04-08T09:09:56.072Z,6.28
2023-04-08T09:12:26.097Z,6.32
2023-04-08T09:15:12.855Z,6.38
2023-04-08T09:17:41.796Z,6.15
2023-04-08T09:20:12.320Z,6.40
2023-04-08T09:22:54.115Z,6.53
2023-04-08T09:25:32.753Z,6.13
2023-04-08T09:28:00.433Z,6.78
2023-04-08T09:30:28.044Z,6.60
2023-04-08T09:32:58.721Z,6.13
2023-04-08T09:35:26.228Z,5.55
2023-04-08T09:37:53.234Z,6.28
2023-04-08T09:40:20.172Z,5.88
2023-04-08T09:42:53.857Z,5.32
2023-04-08T09:45:21.729Z,6.13
2023-04-08T09:47:53.733Z,5.28
2023-04-08T09:50:27.092Z,5.50
2023-04-08T09:53:01.179Z,6.32
2023-04-08T09:55:34.441Z,6.35
2023-04-08T09:58:22.989Z,5.10
2023-04-08T10:00:52.334Z,5.13
2023-04-08T10:03:29.368Z,5.25
2023-04-08T10:05:57.001Z,5.18
2023-04-08T10:08:26.206Z,5.57
2023-04-08T10:10:54.979Z,5.43
2023-04-08T10:13:22.584Z,5.18
2023-04-08T10:15:49.405Z,4.55
2023-04-08T10:18:18.986Z,4.78
2023-04-08T10:20:48.215Z,4.70
2023-04-08T10:23:17.093Z,4.95
2023-04-08T10:25:45.561Z,5.28
2023-04-08T10:28:12.353Z,5.10
2023-04-08T10:30:43.951Z,5.45
2023-04-08T10:33:15.405Z,5.78
2023-04-08T10:35:46.771Z,4.90
2023-04-08T10:38:15.424Z,5.00
2023-04-08T10:40:43.663Z,5.25
2023-04-08T10:43:11.987Z,5.00
2023-04-08T10:45:40.731Z,5.20
2023-04-08T10:48:33.959Z,5.10
2023-04-08T10:51:03.134Z,5.15
2023-04-08T10:53:37.379Z,5.28
2023-04-08T10:56:08.575Z,5.75
2023-04-08T10:58:37.060Z,4.70
2023-04-08T11:01:07.399Z,5.38
2023-04-08T11:03:36.079Z,5.07
2023-04-08T11:06:03.796Z,5.22
2023-04-08T11:08:32.686Z,4.82
2023-04-08T11:11:04.406Z,4.95
2023-04-08T11:13:33.993Z,4.78
2023-04-08T11:16:00.882Z,4.82
2023-04-08T11:18:28.909Z,4.82
2023-04-08T11:20:56.799Z,5.40
2023-04-08T11:23:29.094Z,5.00
2023-04-08T11:25:56.885Z,4.47
2023-04-08T11:28:25.193Z,5.22
2023-04-08T11:30:53.582Z,5.03
2023-04-08T11:33:20.784Z,4.75
2023-04-08T11:35:51.822Z,4.70
2023-04-08T11:38:23.492Z,4.78
2023-04-08T11:41:01.260Z,5.20
2023-04-08T11:43:28.914Z,4.72
2023-04-08T11:45:55.838Z,5.00
2023-04-08T11:48:24.431Z,5.25
2023-04-08T11:51:04.320Z,4.88
2023-04-08T11:53:31.212Z,4.88
2023-04-08T11:55:58.239Z,4.55
2023-04-08T11:58:25.025Z,4.88
2023-04-08T12:00:51.829Z,4.97
2023-04-08T12:03:19.257Z,4.38
2023-04-08T12:05:46.730Z,4.78
2023-04-08T12:08:13.529Z,4.47
2023-04-08T12:10:40.366Z,5.00
2023-04-08T12:13:08.900Z,4.53
2023-04-08T12:15:35.690Z,4.35
2023-04-08T12:18:02.549Z,4.60
2023-04-08T12:20:29.425Z,4.50
2023-04-08T12:22:56.398Z,4.95
2023-04-08T12:25:23.203Z,4.40
2023-04-08T12:27:50.133Z,4.43
2023-04-08T12:30:17.152Z,4.47
2023-04-08T12:32:46.355Z,5.18
2023-04-08T12:35:13.586Z,4.60
2023-04-08T12:37:40.381Z,4.78
2023-04-08T12:40:08.009Z,4.72
2023-04-08T12:42:36.714Z,4.95
2023-04-08T12:45:04.754Z,4.90
2023-04-08T12:47:34.642Z,5.32
2023-04-08T12:50:02.396Z,5.00
2023-04-08T12:52:29.518Z,4.88
2023-04-08T12:54:56.991Z,4.60
2023-04-08T12:57:23.888Z,4.68
2023-04-08T12:59:50.911Z,4.65
2023-04-08T13:02:17.711Z,4.35
2023-04-08T13:04:45.519Z,4.57
2023-04-08T13:07:12.269Z,4.57
2023-04-08T13:09:38.982Z,4.40
2023-04-08T13:12:06.755Z,4.50
2023-04-08T13:14:33.524Z,5.25
2023-04-08T13:17:00.267Z,4.20
2023-04-08T13:19:27.481Z,4.13
2023-04-08T13:21:54.271Z,4.57
2023-04-08T13:24:24.341Z,4.32
2023-04-08T13:26:51.873Z,5.82
2023-04-08T13:29:18.907Z,4.15
2023-04-08T13:31:45.821Z,3.92
2023-04-08T13:34:12.659Z,3.75
2023-04-08T13:36:40.052Z,3.50
2023-04-08T13:39:08.743Z,4.22
2023-04-08T13:41:38.345Z,4.13
2023-04-08T13:44:08.655Z,3.70
2023-04-08T13:46:36.469Z,3.55
2023-04-08T13:49:03.495Z,4.05
2023-04-08T13:51:30.420Z,3.70
2023-04-08T13:53:57.659Z,3.95
2023-04-08T13:56:24.671Z,3.83
2023-04-08T13:58:57.074Z,4.00
2023-04-08T14:01:24.866Z,3.97
2023-04-08T14:03:51.787Z,4.00
2023-04-08T14:06:18.774Z,4.40
2023-04-08T14:08:45.722Z,4.03
2023-04-08T14:11:13.010Z,4.13
2023-04-08T14:13:39.752Z,4.53
2023-04-08T14:16:09.816Z,4.55
2023-04-08T14:18:36.725Z,4.35
2023-04-08T14:21:04.810Z,4.28
2023-04-08T14:23:32.102Z,3.97
2023-04-08T14:26:01.833Z,4.50
2023-04-08T14:28:28.531Z,4.70
2023-04-08T14:30:56.406Z,4.22
2023-04-08T14:33:27.446Z,4.35
2023-04-08T14:35:54.286Z,4.13
2023-04-08T14:38:21.719Z,4.80
2023-04-08T14:40:48.734Z,4.55
2023-04-08T14:43:15.587Z,4.20
2023-04-08T14:45:42.634Z,4.43
2023-04-08T14:48:09.923Z,4.63
2023-04-08T14:50:37.548Z,4.20
2023-04-08T14:53:04.443Z,4.95
2023-04-08T14:55:32.910Z,4.72
2023-04-08T14:58:01.028Z,4.53
2023-04-08T15:00:28.108Z,4.75
2023-04-08T15:02:55.137Z,4.65
2023-04-08T15:05:22.126Z,4.80
2023-04-08T15:07:49.474Z,4.70
2023-04-08T15:10:16.394Z,5.40
2023-04-08T15:12:43.203Z,4.75
2023-04-08T15:15:11.007Z,4.90
2023-04-08T15:17:41.035Z,4.60
2023-04-08T15:20:08.484Z,5.10
2023-04-08T15:22:35.265Z,5.15
2023-04-08T15:25:05.920Z,4.70
2023-04-08T15:27:33.116Z,5.35
2023-04-08T15:29:59.953Z,5.53
2023-04-08T15:32:30.584Z,5.68
2023-04-08T15:34:57.654Z,5.50
2023-04-08T15:37:25.381Z,5.72
2023-04-08T15:39:55.575Z,5.57
2023-04-08T15:42:23.058Z,6.03
2023-04-08T15:44:49.787Z,5.60
2023-04-08T15:47:17.148Z,5.70
2023-04-08T15:49:44.205Z,6.18
2023-04-08T15:52:12.328Z,6.28
2023-04-08T15:54:39.064Z,7.10
2023-04-08T15:57:05.793Z,9.35
2023-04-08T15:59:33.421Z,8.25
2023-04-08T16:02:00.558Z,11.55
2023-04-08T16:04:28.170Z,11.80
2023-04-08T16:06:55.743Z,10.45
2023-04-08T16:09:25.885Z,6.88
2023-04-08T16:11:53.368Z,6.40
2023-04-08T16:14:20.427Z,6.32
2023-04-08T16:16:47.640Z,7.60
2023-04-08T16:19:14.669Z,6.05
2023-04-08T16:21:42.170Z,6.72
2023-04-08T16:24:09.006Z,7.45
2023-04-08T16:26:36.399Z,6.80
2023-04-08T16:29:03.683Z,7.55
2023-04-08T16:34:18.402Z,6.85
2023-04-08T16:36:45.380Z,6.30
2023-04-08T16:39:15.197Z,6.75
2023-04-08T16:41:42.094Z,6.25
2023-04-08T16:44:09.140Z,6.70
2023-04-08T16:46:37.263Z,6.55
2023-04-08T16:49:04.067Z,7.00
2023-04-08T16:51:31.078Z,7.32
2023-04-08T16:53:59.780Z,7.60
2023-04-08T16:56:27.961Z,7.95
2023-04-08T16:58:54.916Z,6.50
2023-04-08T17:01:22.009Z,7.32
2023-04-08T17:03:49.050Z,8.00
2023-04-08T17:06:17.662Z,7.38
2023-04-08T17:08:45.107Z,7.88
2023-04-08T17:11:15.588Z,7.75
2023-04-08T17:13:44.191Z,7.28
2023-04-08T17:16:16.133Z,7.43
2023-04-08T17:18:43.603Z,6.93
2023-04-08T17:21:10.914Z,7.22
2023-04-08T17:23:38.285Z,6.65
2023-04-08T17:26:09.164Z,6.47
2023-04-08T17:28:36.795Z,6.85
2023-04-08T17:31:04.471Z,7.13
2023-04-08T17:33:31.922Z,6.32
2023-04-08T17:35:59.660Z,7.30
2023-04-08T17:38:26.631Z,7.32
2023-04-08T17:40:53.565Z,7.10
2023-04-08T17:43:20.386Z,6.53
2023-04-08T17:45:47.549Z,6.78
2023-04-08T17:48:14.380Z,7.05
2023-04-08T17:50:41.330Z,6.70
2023-04-08T17:53:08.164Z,7.95
2023-04-08T17:55:34.931Z,6.95
2023-04-08T17:58:02.458Z,7.18
2023-04-08T18:00:33.023Z,7.55
2023-04-08T18:02:59.961Z,7.20
2023-04-08T18:05:28.135Z,7.40
2023-04-08T18:07:55.123Z,7.88
2023-04-08T18:10:23.759Z,7.15
2023-04-08T18:12:54.699Z,7.00
2023-04-08T18:15:28.294Z,7.05
2023-04-08T18:17:56.098Z,7.30
2023-04-08T18:20:26.642Z,6.88
2023-04-08T18:22:53.459Z,6.80
2023-04-08T18:25:22.628Z,6.85
2023-04-08T18:27:50.214Z,6.63
2023-04-08T18:30:17.063Z,6.90
2023-04-08T18:32:43.876Z,6.90
2023-04-08T18:35:10.655Z,7.70
2023-04-08T18:37:37.569Z,7.25
2023-04-08T18:40:05.003Z,6.60
2023-04-08T18:42:31.869Z,7.78
2023-04-08T18:45:02.201Z,7.72
2023-04-08T18:47:28.904Z,6.90
2023-04-08T18:49:57.129Z,7.07
2023-04-08T18:52:27.395Z,7.30
2023-04-08T18:54:54.837Z,7.95
2023-04-08T18:57:22.439Z,7.85
2023-04-08T18:59:49.340Z,8.48
2023-04-08T19:02:16.837Z,7.80
2023-04-08T19:04:43.818Z,7.43
2023-04-08T19:07:15.387Z,7.72
2023-04-08T19:09:42.101Z,8.00
2023-04-08T19:12:08.841Z,8.05
2023-04-08T19:14:35.700Z,7.60
2023-04-08T19:17:02.502Z,7.25
2023-04-08T19:19:29.308Z,8.07
2023-04-08T19:22:00.922Z,7.70
2023-04-08T19:24:27.711Z,8.50
2023-04-08T19:26:54.541Z,8.45
2023-04-08T19:29:23.549Z,8.35
2023-04-08T19:31:50.460Z,8.35
2023-04-08T19:34:17.322Z,8.15
2023-04-08T19:36:44.059Z,8.10
2023-04-08T19:39:10.930Z,8.95
2023-04-08T19:41:38.105Z,9.23
2023-04-08T19:44:04.856Z,10.10
2023-04-08T19:46:32.885Z,10.05
2023-04-08T19:48:59.931Z,9.52
2023-04-08T19:51:29.709Z,9.88
2023-04-08T19:53:56.612Z,9.85
2023-04-08T19:56:23.530Z,9.38
2023-04-08T19:58:50.441Z,10.82
2023-04-08T20:01:17.812Z,10.38
2023-04-08T20:03:50.628Z,10.43
2023-04-08T20:06:21.166Z,10.35
2023-04-08T20:08:50.530Z,10.40
2023-04-08T20:11:18.356Z,10.50
2023-04-08T20:13:47.130Z,9.48
2023-04-08T20:16:14.226Z,9.60
2023-04-08T20:18:41.200Z,9.73
2023-04-08T20:21:10.729Z,10.38
2023-04-08T20:23:41.046Z,8.35
2023-04-08T20:26:08.814Z,9.25
2023-04-08T20:28:35.691Z,9.32
2023-04-08T20:31:03.422Z,9.52
2023-04-08T20:33:30.542Z,9.80
2023-04-08T20:35:57.968Z,9.35
2023-04-08T20:38:25.291Z,10.07
2023-04-08T20:40:52.213Z,10.40
2023-04-08T20:43:19.115Z,12.05
2023-04-08T20:45:45.982Z,10.25
2023-04-08T20:48:13.773Z,11.02
2023-04-08T20:50:40.892Z,11.20
2023-04-08T20:53:08.152Z,11.30
2023-04-08T20:55:34.890Z,10.48
2023-04-08T20:58:05.873Z,10.60
2023-04-08T21:00:32.736Z,10.50
2023-04-08T21:02:59.906Z,10.27
2023-04-08T21:05:26.936Z,10.40
2023-04-08T21:07:53.774Z,10.40
2023-04-08T21:10:20.648Z,11.75
2023-04-08T21:12:47.483Z,11.48
2023-04-08T21:15:14.645Z,10.98
2023-04-08T21:17:41.469Z,10.90
2023-04-08T21:20:08.848Z,12.00
2023-04-08T21:22:39.395Z,11.55
2023-04-08T21:25:06.687Z,13.18
2023-04-08T21:27:33.460Z,11.48
2023-04-08T21:30:01.121Z,11.50
2023-04-08T21:32:30.081Z,11.75
2023-04-08T21:34:57.342Z,11.30
2023-04-08T21:37:24.152Z,12.88
2023-04-08T21:39:51.663Z,12.63
2023-04-08T21:42:22.849Z,10.75
2023-04-08T21:44:50.037Z,12.07
2023-04-08T21:47:17.525Z,12.18
2023-04-08T21:49:44.906Z,11.30
2023-04-08T21:52:11.702Z,12.73
2023-04-08T21:54:38.937Z,12.45
2023-04-08T21:57:05.700Z,13.27
2023-04-08T21:59:35.368Z,13.02
2023-04-08T22:02:02.495Z,13.35
2023-04-08T22:04:29.856Z,12.93
2023-04-08T22:06:57.006Z,13.55
2023-04-08T22:09:23.747Z,12.63
2023-04-08T22:11:53.561Z,12.27
2023-04-08T22:14:20.843Z,13.18
2023-04-08T22:16:47.558Z,11.77
2023-04-08T22:19:15.905Z,13.13
2023-04-08T22:21:42.791Z,13.40
2023-04-08T22:24:09.497Z,13.30
2023-04-08T22:26:36.276Z,13.48
2023-04-08T22:29:06.654Z,13.13
2023-04-08T22:31:33.866Z,12.98
2023-04-08T22:34:03.193Z,12.70
2023-04-08T22:36:30.012Z,12.68
2023-04-08T22:38:58.166Z,13.52
2023-04-08T22:41:25.277Z,13.43
2023-04-08T22:43:52.356Z,12.77
2023-04-08T22:46:20.382Z,13.32
2023-04-08T22:48:48.594Z,13.07
2023-04-08T22:51:15.870Z,13.07
2023-04-08T22:53:49.483Z,12.98
2023-04-08T22:56:16.356Z,13.52
2023-04-08T22:58:44.117Z,12.18
2023-04-08T23:01:17.495Z,13.27
2023-04-08T23:03:44.776Z,13.57
2023-04-08T23:06:11.732Z,12.93
2023-04-08T23:08:39.058Z,12.38
2023-04-08T23:11:09.402Z,12.27
2023-04-08T23:13:36.767Z,12.95
2023-04-08T23:16:03.904Z,14.10
2023-04-08T23:18:30.711Z,13.18
2023-04-08T23:20:58.285Z,12.95
2023-04-08T23:23:25.647Z,13.75
2023-04-08T23:25:55.560Z,12.55
2023-04-08T23:28:22.874Z,12.90
2023-04-08T23:30:50.144Z,13.15
2023-04-08T23:33:18.432Z,13.05
2023-04-08T23:35:45.339Z,13.13
2023-04-08T23:38:12.101Z,13.35
2023-04-08T23:40:38.988Z,13.82
2023-04-08T23:43:05.945Z,14.43
2023-04-08T23:45:32.715Z,14.10
2023-04-08T23:47:59.525Z,13.88
2023-04-08T23:50:26.540Z,14.15
2023-04-08T23:52:53.342Z,14.05
2023-04-08T23:55:20.231Z,15.05
2023-04-08T23:57:49.431Z,14.27
